Time;durP1;ratioP1;P1;durP2;ratioP2;P2;SDS_P1;SDS_P2;PMS_P1;PMS_P2;Temp;Humidity;BMP_temperature;BMP_pressure;BME280_temperature;BME280_humidity;BME280_pressure;Samples;Min_cycle;Max_cycle;Signal;HPM_P1;HPM_P2
2024/01/31 00:01:53;;;;;;;39.47;21.77;;;;;;;0.07;75.32;101527.06;5111567;28;21008;-67
2024/01/31 00:04:20;;;;;;;39.70;23.83;;;;;;;-0.03;75.30;101524.09;5111425;28;20444;-67
2024/01/31 00:06:50;;;;;;;43.60;24.17;;;;;;;-0.24;76.65;101522.59;5111702;28;20547;-67
2024/01/31 00:09:17;;;;;;;38.83;21.20;;;;;;;-0.23;77.33;101523.44;5111476;28;20433;-68
2024/01/31 00:11:44;;;;;;;34.90;19.60;;;;;;;-0.27;77.48;101495.81;5110965;28;20947;-68
2024/01/31 00:14:13;;;;;;;32.57;18.00;;;;;;;-0.11;76.25;101522.81;5111190;28;20477;-68
2024/01/31 00:16:40;;;;;;;36.00;20.43;;;;;;;-0.38;77.09;101513.78;5111332;28;20490;-67
2024/01/31 00:19:07;;;;;;;33.60;19.90;;;;;;;-0.38;78.20;101524.22;5111719;28;20436;-68
2024/01/31 00:21:34;;;;;;;36.33;20.57;;;;;;;-0.25;78.13;101520.91;5111303;28;20501;-68
2024/01/31 00:24:02;;;;;;;30.90;20.00;;;;;;;-0.18;78.03;101511.84;5111613;28;20432;-67
2024/01/31 00:26:28;;;;;;;31.50;19.73;;;;;;;-0.10;77.68;101525.34;5111270;28;20501;-67
2024/01/31 00:28:55;;;;;;;33.17;19.77;;;;;;;-0.03;77.44;101512.81;5111147;28;20442;-67
2024/01/31 00:31:22;;;;;;;39.13;25.50;;;;;;;0.03;76.81;101509.88;5111233;28;20922;-67
2024/01/31 00:33:48;;;;;;;46.10;24.10;;;;;;;0.06;76.31;101517.56;5111205;28;20557;-67
2024/01/31 00:36:15;;;;;;;36.27;21.33;;;;;;;0.08;76.32;101524.38;5110917;28;20517;-68
2024/01/31 00:38:42;;;;;;;32.23;19.50;;;;;;;0.07;76.14;101519.25;5111086;28;20444;-66
2024/01/31 00:41:10;;;;;;;25.17;16.97;;;;;;;0.05;76.10;101519.31;5111190;28;20904;-66
2024/01/31 00:43:37;;;;;;;49.47;24.47;;;;;;;0.04;76.90;101522.00;5113322;28;20432;-67
2024/01/31 00:46:04;;;;;;;66.03;28.07;;;;;;;0.07;76.49;101516.63;5114760;28;20953;-67
2024/01/31 00:48:32;;;;;;;74.53;31.70;;;;;;;0.07;76.35;101523.63;5114855;28;20876;-67
2024/01/31 00:50:59;;;;;;;47.70;21.67;;;;;;;0.05;76.43;101519.31;5114816;28;20959;-68
2024/01/31 00:53:25;;;;;;;62.23;26.37;;;;;;;0.09;76.28;101520.03;5114808;28;20480;-67
2024/01/31 00:55:52;;;;;;;58.63;25.77;;;;;;;0.16;75.80;101510.91;5114709;28;20437;-67
2024/01/31 00:58:20;;;;;;;27.17;18.07;;;;;;;0.13;75.36;101516.31;5115092;28;20432;-69
2024/01/31 01:00:47;;;;;;;29.90;20.17;;;;;;;0.13;75.58;101518.94;5114566;28;20512;-68
2024/01/31 01:03:13;;;;;;;26.13;17.40;;;;;;;0.07;75.64;101519.25;5114701;28;20501;-68
2024/01/31 01:05:40;;;;;;;34.30;17.70;;;;;;;0.05;76.06;101515.88;5114439;28;20948;-68
2024/01/31 01:08:07;;;;;;;30.47;17.63;;;;;;;0.11;75.58;101512.94;5114769;28;20440;-68
2024/01/31 01:10:34;;;;;;;29.03;16.77;;;;;;;0.16;75.40;101505.69;5114176;28;20947;-68
2024/01/31 01:13:01;;;;;;;26.83;16.67;;;;;;;0.17;74.65;101507.41;5113972;28;20442;-68
2024/01/31 01:15:29;;;;;;;31.30;16.90;;;;;;;0.19;74.86;101510.75;5114216;28;20798;-68
2024/01/31 01:17:56;;;;;;;32.03;16.53;;;;;;;0.12;74.93;101506.78;5114148;28;20436;-68
2024/01/31 01:20:22;;;;;;;20.77;14.77;;;;;;;0.05;74.93;101503.63;5114145;28;20846;-68
2024/01/31 01:22:49;;;;;;;26.43;15.00;;;;;;;0.05;75.17;101494.97;5114381;28;20425;-68
2024/01/31 01:25:16;;;;;;;24.03;15.53;;;;;;;0.09;75.14;101493.91;5113941;28;21017;-68
2024/01/31 01:27:50;;;;;;;21.57;14.27;;;;;;;0.11;75.12;101494.66;5114147;28;20436;-67
2024/01/31 01:30:17;;;;;;;23.53;14.77;;;;;;;0.11;74.74;101502.47;5113958;28;20656;-67
2024/01/31 01:32:45;;;;;;;19.63;13.67;;;;;;;0.01;74.92;101496.06;5113855;28;20494;-67
2024/01/31 01:35:13;;;;;;;20.23;14.03;;;;;;;0.04;75.22;101501.09;5113557;28;20943;-67
2024/01/31 01:37:40;;;;;;;18.80;13.73;;;;;;;-0.03;75.31;101497.16;5113792;28;20444;-66
2024/01/31 01:40:09;;;;;;;23.57;14.77;;;;;;;-0.06;75.51;101489.47;5113650;28;20506;-67
2024/01/31 01:42:39;;;;;;;20.17;13.17;;;;;;;-0.10;75.39;101496.63;5113499;28;20437;-67
2024/01/31 01:45:06;;;;;;;25.27;15.27;;;;;;;-0.19;75.60;101489.25;5113616;28;20476;-68
2024/01/31 01:47:33;;;;;;;20.40;12.97;;;;;;;-0.21;75.95;101491.13;5113896;28;20452;-67
2024/01/31 01:50:03;;;;;;;19.20;13.40;;;;;;;-0.16;75.85;101488.28;5113855;28;20432;-68
2024/01/31 01:52:32;;;;;;;20.40;14.10;;;;;;;-0.14;75.35;101486.41;5113806;28;20503;-66
2024/01/31 01:55:02;;;;;;;19.07;13.23;;;;;;;-0.11;74.97;101487.09;5112254;28;20477;-68
2024/01/31 01:57:31;;;;;;;16.80;12.43;;;;;;;-0.16;75.24;101490.88;5113151;28;20429;-68
2024/01/31 01:59:58;;;;;;;19.97;12.40;;;;;;;-0.15;75.00;101484.72;5113619;28;20473;-67
2024/01/31 02:02:25;;;;;;;19.30;12.30;;;;;;;-0.18;74.62;101477.03;5113315;28;20444;-68
2024/01/31 02:04:52;;;;;;;16.03;11.03;;;;;;;-0.22;74.83;101480.75;5113799;28;20441;-68
2024/01/31 02:07:25;;;;;;;14.40;11.30;;;;;;;-0.23;74.80;101486.91;5113303;28;20436;-66
2024/01/31 02:09:52;;;;;;;17.83;12.17;;;;;;;-0.27;74.76;101485.38;5113427;28;20421;-67
2024/01/31 02:12:19;;;;;;;13.57;9.90;;;;;;;-0.24;74.96;101480.00;5113023;28;20858;-67
2024/01/31 02:14:47;;;;;;;11.37;10.20;;;;;;;-0.23;74.59;101473.84;5112853;28;20916;-68
2024/01/31 02:17:14;;;;;;;11.93;9.23;;;;;;;-0.17;74.34;101478.72;5113372;28;20448;-68
2024/01/31 02:19:40;;;;;;;9.90;8.90;;;;;;;-0.19;74.05;101483.19;5112805;28;20937;-68
2024/01/31 02:22:07;;;;;;;12.60;10.00;;;;;;;-0.27;73.82;101480.16;5113165;28;20441;-68
2024/01/31 02:24:35;;;;;;;10.37;9.37;;;;;;;-0.31;74.39;101483.84;5112906;28;20448;-68
2024/01/31 02:27:02;;;;;;;10.50;8.93;;;;;;;-0.33;73.89;101475.22;5122926;27;20509;-68
2024/01/31 02:29:29;;;;;;;10.63;9.07;;;;;;;-0.31;74.05;101478.63;5112661;28;20444;-67
2024/01/31 02:31:55;;;;;;;12.17;10.60;;;;;;;-0.35;74.40;101482.31;5113190;28;20436;-68
2024/01/31 02:34:22;;;;;;;11.70;9.87;;;;;;;-0.37;74.11;101478.91;5113234;28;20502;-67
2024/01/31 02:36:49;;;;;;;14.97;11.10;;;;;;;-0.38;74.07;101466.78;5112597;28;20500;-67
2024/01/31 02:39:15;;;;;;;13.67;9.77;;;;;;;-0.35;73.73;101477.09;5112845;28;20444;-67
2024/01/31 02:41:43;;;;;;;15.30;9.60;;;;;;;-0.43;73.94;101471.41;5112846;28;20460;-68
2024/01/31 02:44:10;;;;;;;11.90;9.17;;;;;;;-0.54;73.64;101452.84;5112575;28;20509;-68
2024/01/31 02:46:38;;;;;;;10.13;9.00;;;;;;;-0.52;73.33;101469.28;5112908;28;20438;-67
2024/01/31 02:49:07;;;;;;;11.23;7.47;;;;;;;-0.63;73.73;101469.81;5112438;28;20509;-67
2024/01/31 02:51:33;;;;;;;10.00;8.20;;;;;;;-0.82;74.37;101470.78;5112062;28;20528;-67
2024/01/31 02:54:00;;;;;;;12.00;8.70;;;;;;;-0.91;74.84;101471.25;5112512;28;20523;-68
2024/01/31 02:56:27;;;;;;;9.03;8.13;;;;;;;-0.98;75.33;101467.28;5112638;28;20440;-68
2024/01/31 02:58:55;;;;;;;12.57;9.07;;;;;;;-1.03;76.00;101464.03;5112557;28;20607;-69
2024/01/31 03:01:22;;;;;;;16.77;9.80;;;;;;;-1.00;77.42;101463.88;5112737;28;20519;-67
2024/01/31 03:03:48;;;;;;;13.27;11.63;;;;;;;-0.99;76.88;101469.03;5112183;28;20447;-67
2024/01/31 03:06:15;;;;;;;15.57;10.27;;;;;;;-1.01;76.45;101473.47;5112134;28;20514;-67
2024/01/31 03:08:42;;;;;;;13.00;10.60;;;;;;;-1.09;76.26;101472.16;5112222;28;20475;-67
2024/01/31 03:11:09;;;;;;;12.83;9.60;;;;;;;-1.26;76.64;101472.13;5112232;28;20472;-67
2024/01/31 03:13:35;;;;;;;16.97;11.30;;;;;;;-1.35;77.37;101475.19;5111851;28;21005;-67
2024/01/31 03:16:04;;;;;;;26.93;15.60;;;;;;;-1.40;77.82;101477.13;5112366;28;20444;-67
2024/01/31 03:18:30;;;;;;;58.73;29.93;;;;;;;-1.58;78.03;101463.22;5112206;28;20501;-67
2024/01/31 03:20:57;;;;;;;134.33;62.93;;;;;;;-1.75;78.94;101460.53;5111867;28;20436;-67
2024/01/31 03:23:24;;;;;;;40.67;26.30;;;;;;;-1.77;78.92;101466.75;5112029;28;20485;-67
2024/01/31 03:25:51;;;;;;;41.30;25.97;;;;;;;-1.84;79.34;101460.97;5112185;28;20451;-68
2024/01/31 03:28:17;;;;;;;38.40;21.77;;;;;;;-1.97;79.70;101472.00;5112012;28;20530;-68
2024/01/31 03:30:44;;;;;;;32.70;21.17;;;;;;;-2.06;80.38;101475.03;5111838;28;20436;-68
2024/01/31 03:33:12;;;;;;;67.87;31.03;;;;;;;-2.07;81.52;101469.00;5112076;28;20440;-68
2024/01/31 03:35:39;;;;;;;61.53;29.83;;;;;;;-2.04;81.54;101470.59;5112081;28;20552;-68
2024/01/31 03:38:05;;;;;;;67.50;29.90;;;;;;;-2.00;82.50;101469.56;5111658;28;20501;-69
2024/01/31 03:40:32;;;;;;;58.33;28.87;;;;;;;-1.97;81.94;101470.25;5111717;28;20468;-68
2024/01/31 03:42:59;;;;;;;48.67;25.30;;;;;;;-2.04;82.31;101463.63;5112074;28;20496;-68
2024/01/31 03:45:26;;;;;;;53.07;26.43;;;;;;;-2.01;82.93;101466.09;5111123;28;20944;-68
2024/01/31 03:47:53;;;;;;;34.87;19.83;;;;;;;-1.96;81.97;101465.91;5112067;28;20436;-68
2024/01/31 03:50:21;;;;;;;34.10;19.03;;;;;;;-1.95;81.51;101462.38;5111813;28;20497;-68
2024/01/31 03:52:48;;;;;;;47.07;23.70;;;;;;;-1.97;81.34;101456.38;5111447;28;20443;-67
2024/01/31 03:55:14;;;;;;;45.00;23.87;;;;;;;-2.05;82.16;101456.72;5111596;28;20536;-68
2024/01/31 03:57:41;;;;;;;33.70;18.97;;;;;;;-1.93;82.83;101455.31;5111488;28;21013;-66
2024/01/31 04:00:09;;;;;;;19.27;14.13;;;;;;;-1.83;81.94;101456.63;5111725;28;20440;-67
2024/01/31 04:02:36;;;;;;;26.03;16.53;;;;;;;-1.74;81.56;101453.59;5111759;28;20444;-67
2024/01/31 04:05:03;;;;;;;25.00;15.10;;;;;;;-1.65;81.00;101447.94;5111697;28;20505;-67
2024/01/31 04:07:31;;;;;;;22.67;14.43;;;;;;;-1.61;80.07;101452.94;5112158;28;20444;-67
2024/01/31 04:09:58;;;;;;;28.20;16.27;;;;;;;-1.61;79.35;101450.34;5111553;28;20528;-68
2024/01/31 04:12:24;;;;;;;24.10;16.23;;;;;;;-1.60;80.22;101453.78;5111705;28;20432;-67
2024/01/31 04:14:51;;;;;;;35.67;18.30;;;;;;;-1.59;79.74;101450.28;5111351;28;20475;-67
2024/01/31 04:17:18;;;;;;;54.43;27.63;;;;;;;-1.76;80.36;101458.03;5111721;28;20509;-67
2024/01/31 04:19:48;;;;;;;91.40;40.97;;;;;;;-1.76;81.11;101452.81;5115254;28;20436;-68
2024/01/31 04:22:15;;;;;;;88.37;43.53;;;;;;;-1.76;81.10;101450.22;5114911;28;21012;-68
2024/01/31 04:24:43;;;;;;;62.13;33.63;;;;;;;-1.83;80.99;101456.63;5115165;28;20444;-67
2024/01/31 04:27:10;;;;;;;57.03;31.20;;;;;;;-1.96;80.92;101458.91;5115194;28;20511;-67
2024/01/31 04:29:38;;;;;;;37.33;21.67;;;;;;;-2.15;81.81;101455.47;5115099;28;20436;-67
2024/01/31 04:32:06;;;;;;;30.57;18.97;;;;;;;-2.17;82.48;101452.06;5114984;28;21030;-67
2024/01/31 04:34:34;;;;;;;30.33;18.47;;;;;;;-2.04;83.63;101457.59;5114957;28;20467;-67
2024/01/31 04:37:01;;;;;;;24.50;17.07;;;;;;;-1.94;83.24;101461.47;5115085;28;20500;-67
2024/01/31 04:39:27;;;;;;;29.50;17.97;;;;;;;-1.87;82.50;101455.06;5114574;28;20817;-67
2024/01/31 04:41:55;;;;;;;27.63;16.63;;;;;;;-1.75;81.83;101464.94;5114558;28;20467;-67
2024/01/31 04:44:22;;;;;;;28.67;17.60;;;;;;;-1.69;80.65;101469.84;5115068;28;20528;-67
2024/01/31 04:46:49;;;;;;;34.27;16.80;;;;;;;-1.62;80.64;101473.84;5114075;28;20436;-67
2024/01/31 04:49:16;;;;;;;30.80;16.47;;;;;;;-1.56;80.46;101470.94;5114490;28;20509;-67
2024/01/31 04:51:43;;;;;;;27.80;16.67;;;;;;;-1.55;80.29;101475.28;5114145;28;20440;-67
2024/01/31 04:54:10;;;;;;;27.90;16.83;;;;;;;-1.68;80.30;101471.50;5114668;28;20447;-67
2024/01/31 04:56:37;;;;;;;27.13;17.03;;;;;;;-1.58;81.15;101468.44;5114537;28;20943;-67
2024/01/31 04:59:05;;;;;;;34.30;17.10;;;;;;;-1.53;81.24;101476.88;5115079;28;20490;-67
2024/01/31 05:01:32;;;;;;;23.13;15.83;;;;;;;-1.49;80.91;101472.38;5114438;28;20537;-67
2024/01/31 05:03:58;;;;;;;24.73;15.93;;;;;;;-1.48;80.19;101487.06;5114381;28;20955;-67
2024/01/31 05:06:25;;;;;;;26.73;16.43;;;;;;;-1.45;79.73;101479.13;5114174;28;20443;-67
2024/01/31 05:08:52;;;;;;;25.73;15.80;;;;;;;-1.40;79.15;101472.78;5114063;28;20509;-67
2024/01/31 05:11:19;;;;;;;27.07;15.03;;;;;;;-1.33;79.19;101478.53;5114393;28;20497;-65
2024/01/31 05:13:46;;;;;;;27.30;16.30;;;;;;;-1.27;79.29;101479.09;5114070;28;20792;-67
2024/01/31 05:16:14;;;;;;;25.50;15.50;;;;;;;-1.22;78.65;101477.09;5114038;28;20476;-68
2024/01/31 05:18:41;;;;;;;29.87;15.47;;;;;;;-1.25;77.44;101487.72;5114055;28;20722;-67
2024/01/31 05:21:10;;;;;;;30.37;18.07;;;;;;;-1.34;77.65;101482.06;5113787;28;20440;-66
2024/01/31 05:23:37;;;;;;;31.53;19.63;;;;;;;-1.50;78.42;101473.28;5114536;28;20440;-67
2024/01/31 05:26:08;;;;;;;39.03;25.63;;;;;;;-1.64;79.66;101473.91;5113742;28;20444;-65
2024/01/31 05:28:34;;;;;;;30.43;17.40;;;;;;;-1.90;80.20;101461.25;5113767;28;20490;-69
2024/01/31 05:31:01;;;;;;;27.23;17.43;;;;;;;-1.93;80.26;101473.56;5113891;28;20505;-68
2024/01/31 05:33:29;;;;;;;32.03;20.73;;;;;;;-2.14;80.65;101471.91;5113625;28;20523;-69
2024/01/31 05:35:57;;;;;;;28.80;18.27;;;;;;;-2.21;82.01;101473.13;5113537;28;20479;-68
2024/01/31 05:38:24;;;;;;;32.40;18.10;;;;;;;-2.23;82.71;101477.53;5113767;28;20456;-70
2024/01/31 05:40:51;;;;;;;30.13;19.20;;;;;;;-2.38;82.73;101462.56;5113627;28;20882;-69
2024/01/31 05:43:18;;;;;;;34.13;19.97;;;;;;;-2.43;82.84;101475.81;5112690;28;20432;-69
2024/01/31 05:45:45;;;;;;;52.60;23.07;;;;;;;-2.35;83.48;101472.84;5113626;28;20527;-69
2024/01/31 05:48:12;;;;;;;33.73;20.30;;;;;;;-2.44;83.03;101468.91;5113310;28;20440;-69
2024/01/31 05:50:40;;;;;;;41.87;21.70;;;;;;;-2.53;83.00;101464.09;5113409;28;20449;-69
2024/01/31 05:53:07;;;;;;;46.13;22.63;;;;;;;-2.53;83.26;101458.06;5112280;28;20436;-69
2024/01/31 05:55:34;;;;;;;47.57;22.73;;;;;;;-2.53;83.24;101456.28;5099081;28;20587;-69
2024/01/31 05:58:01;;;;;;;33.80;18.60;;;;;;;-2.49;83.14;101470.00;5105519;28;20968;-68
2024/01/31 06:00:27;;;;;;;33.60;17.70;;;;;;;-2.48;83.30;101469.09;5112160;28;20444;-68
2024/01/31 06:02:54;;;;;;;37.70;17.47;;;;;;;-2.44;83.20;101468.91;5113213;28;20460;-68
2024/01/31 06:05:21;;;;;;;40.13;22.53;;;;;;;-2.43;82.95;101464.53;5112671;28;20436;-69
2024/01/31 06:07:49;;;;;;;40.47;20.43;;;;;;;-2.51;83.27;101466.63;5113174;28;20436;-70
2024/01/31 06:10:14;;;;;;;40.60;25.43;;;;;;;-2.47;82.83;101463.84;5112515;28;20432;-70
2024/01/31 06:12:41;;;;;;;28.97;17.83;;;;;;;-2.25;82.43;101471.56;5112483;28;20489;-69
2024/01/31 06:15:09;;;;;;;40.93;17.93;;;;;;;-2.06;81.92;101475.03;5113028;28;20287;-69
2024/01/31 06:17:37;;;;;;;29.00;17.43;;;;;;;-1.95;81.56;101478.84;5112229;28;20432;-69
2024/01/31 06:20:05;;;;;;;32.40;18.87;;;;;;;-1.85;81.41;101479.25;5112974;28;20439;-68
2024/01/31 06:22:32;;;;;;;37.33;20.77;;;;;;;-1.73;81.01;101478.69;5112221;28;20948;-69
2024/01/31 06:25:00;;;;;;;55.40;23.10;;;;;;;-1.56;80.80;101483.97;5113109;28;20505;-68
2024/01/31 06:27:27;;;;;;;55.30;19.50;;;;;;;-1.10;81.05;101480.91;5112595;28;20436;-67
2024/01/31 06:29:54;;;;;;;40.53;20.60;;;;;;;-0.69;79.68;101495.38;5112348;28;21027;-69
2024/01/31 06:32:30;;;;;;;29.13;17.80;;;;;;;-0.10;77.32;101499.25;5112448;28;20436;-69
2024/01/31 06:34:57;;;;;;;15.33;12.37;;;;;;;0.33;73.43;101497.81;5112819;28;20436;-69
2024/01/31 06:37:23;;;;;;;18.23;12.77;;;;;;;0.42;70.53;101502.53;5112681;28;20568;-69
2024/01/31 06:39:50;;;;;;;16.00;11.67;;;;;;;0.38;70.24;101506.25;5112365;28;20441;-70
2024/01/31 06:42:18;;;;;;;17.23;11.50;;;;;;;0.54;73.22;101496.66;5112643;28;20472;-70
2024/01/31 06:44:45;;;;;;;21.48;13.90;;;;;;;1.72;76.21;101501.97;5112925;28;20441;-69
2024/01/31 06:47:11;;;;;;;22.30;13.47;;;;;;;2.17;67.10;101519.34;5112497;28;20242;-71
2024/01/31 06:49:38;;;;;;;23.67;13.03;;;;;;;2.41;64.15;101523.09;5112879;28;20432;-72
2024/01/31 06:52:06;;;;;;;17.60;12.57;;;;;;;2.67;62.21;101531.00;5112100;28;20785;-69
2024/01/31 06:54:33;;;;;;;43.40;14.27;;;;;;;2.64;61.57;101530.34;5112619;28;20453;-70
2024/01/31 06:57:00;;;;;;;19.17;13.37;;;;;;;2.67;63.78;101510.03;5110322;28;20528;-71
2024/01/31 06:59:28;;;;;;;17.50;11.83;;;;;;;2.83;60.72;101531.72;5112585;28;20479;-72
2024/01/31 07:01:54;;;;;;;17.23;12.57;;;;;;;2.61;60.62;101528.75;5111962;28;20496;-72
2024/01/31 07:04:21;;;;;;;22.43;14.97;;;;;;;2.55;60.99;101526.53;5111928;28;20865;-70
2024/01/31 07:06:48;;;;;;;22.90;13.67;;;;;;;2.88;60.56;101531.41;5111581;28;20444;-72
2024/01/31 07:09:14;;;;;;;15.93;12.23;;;;;;;3.08;61.59;101520.50;5111147;28;21040;-72
2024/01/31 07:11:41;;;;;;;23.57;12.60;;;;;;;3.30;58.59;101531.28;5111613;28;20502;-70
2024/01/31 07:14:08;;;;;;;21.10;12.13;;;;;;;3.23;58.73;101535.25;5111504;28;20885;-72
2024/01/31 07:16:36;;;;;;;18.63;12.77;;;;;;;3.30;59.06;101526.88;5111394;28;20478;-70
2024/01/31 07:19:03;;;;;;;16.83;12.10;;;;;;;3.06;59.27;101525.84;5111702;28;20440;-69
2024/01/31 07:21:30;;;;;;;25.47;12.50;;;;;;;3.51;58.66;101525.47;5111894;28;20255;-69
2024/01/31 07:23:56;;;;;;;27.77;17.67;;;;;;;3.82;57.58;101519.84;5111076;28;20506;-71
2024/01/31 07:26:26;;;;;;;30.80;16.73;;;;;;;4.13;56.92;101516.78;5111747;28;20267;-71
2024/01/31 07:28:53;;;;;;;34.53;16.83;;;;;;;4.66;55.36;101503.34;5111394;28;20273;-69
2024/01/31 07:31:20;;;;;;;19.45;14.48;;;;;;;4.99;55.81;101503.53;5111205;28;20434;-68
2024/01/31 07:33:48;;;;;;;20.67;13.53;;;;;;;5.46;63.90;101479.81;5111935;28;20252;-70
2024/01/31 07:36:15;;;;;;;27.33;15.90;;;;;;;6.07;51.68;101504.16;5108257;28;20226;-70
2024/01/31 07:38:43;;;;;;;21.33;11.37;;;;;;;6.44;49.16;101500.34;5110091;28;20196;-69
2024/01/31 07:41:10;;;;;;;30.03;11.53;;;;;;;6.74;48.45;101504.03;5111643;28;20250;-71
2024/01/31 07:43:37;;;;;;;39.20;13.07;;;;;;;7.09;47.34;101498.53;5109638;28;20182;-68
2024/01/31 07:46:04;;;;;;;16.47;12.00;;;;;;;7.22;45.26;101488.69;5110407;28;20250;-69
2024/01/31 07:48:31;;;;;;;18.30;12.20;;;;;;;7.33;44.46;101497.41;5111176;28;20633;-70
2024/01/31 07:50:59;;;;;;;21.07;14.07;;;;;;;7.33;45.60;101493.91;5111741;28;20268;-69
2024/01/31 07:53:26;;;;;;;21.93;15.33;;;;;;;7.59;44.77;101482.84;5112951;28;20269;-70
2024/01/31 07:55:52;;;;;;;17.77;12.83;;;;;;;7.66;43.38;101488.44;5113499;28;20345;-69
2024/01/31 07:58:19;;;;;;;26.77;14.40;;;;;;;7.83;44.95;101490.50;5113385;28;20191;-71
2024/01/31 08:00:46;;;;;;;26.93;16.10;;;;;;;8.20;43.27;101479.31;5115897;28;20205;-69
2024/01/31 08:03:13;;;;;;;14.93;11.57;;;;;;;8.53;41.74;101479.03;5115480;28;20225;-67
2024/01/31 08:05:39;;;;;;;14.70;9.60;;;;;;;8.79;41.96;101468.81;5115469;28;20262;-72
2024/01/31 08:08:08;;;;;;;19.70;12.90;;;;;;;9.02;40.96;101472.88;5110585;28;20190;-73
2024/01/31 08:10:34;;;;;;;16.90;10.40;;;;;;;9.25;40.51;101463.69;5111321;28;20198;-64
2024/01/31 08:13:01;;;;;;;42.23;12.97;;;;;;;9.43;40.76;101467.28;5112227;28;20191;-65
2024/01/31 08:15:28;;;;;;;18.63;11.17;;;;;;;9.27;39.70;101467.06;5112714;28;20248;-66
2024/01/31 08:17:54;;;;;;;17.93;13.13;;;;;;;9.04;41.53;101465.63;5114843;28;20199;-65
2024/01/31 08:20:21;;;;;;;16.03;11.00;;;;;;;9.15;40.84;101463.69;5115354;28;20186;-66
2024/01/31 08:22:48;;;;;;;20.50;10.10;;;;;;;9.44;40.37;101469.00;5115407;28;20222;-63
2024/01/31 08:25:16;;;;;;;13.97;10.23;;;;;;;9.74;40.49;101463.50;5115094;28;20613;-63
2024/01/31 08:27:43;;;;;;;15.87;10.47;;;;;;;9.47;39.30;101463.38;5115016;28;20247;-65
2024/01/31 08:30:11;;;;;;;19.43;11.03;;;;;;;9.18;40.91;101436.03;5108516;28;20569;-65
2024/01/31 08:32:38;;;;;;;44.07;14.70;;;;;;;9.23;40.45;101466.47;5109037;28;20247;-66
2024/01/31 08:35:06;;;;;;;23.10;10.97;;;;;;;9.56;40.71;101458.06;5112142;28;20282;-64
2024/01/31 08:37:33;;;;;;;12.63;10.20;;;;;;;9.40;39.12;101465.75;5110779;28;20255;-66
2024/01/31 08:39:59;;;;;;;17.00;11.80;;;;;;;9.15;40.29;101457.56;5113134;28;20191;-66
2024/01/31 08:42:28;;;;;;;17.17;11.67;;;;;;;8.52;40.46;101452.69;5112189;28;20186;-66
2024/01/31 08:44:55;;;;;;;21.63;11.47;;;;;;;8.48;41.99;101451.28;5111790;28;20611;-66
2024/01/31 08:47:22;;;;;;;12.77;10.13;;;;;;;8.26;42.44;101451.50;5111490;28;20237;-66
2024/01/31 08:49:49;;;;;;;16.80;10.63;;;;;;;8.06;44.33;101439.13;5111891;28;20627;-67
2024/01/31 08:52:16;;;;;;;18.40;12.53;;;;;;;8.16;43.80;101439.97;5111485;28;20225;-67
2024/01/31 08:54:42;;;;;;;13.07;11.10;;;;;;;8.22;43.73;101428.91;5111237;28;20634;-68
2024/01/31 08:57:09;;;;;;;17.87;9.77;;;;;;;8.34;42.47;101435.78;5112399;28;20214;-67
2024/01/31 08:59:37;;;;;;;17.03;11.37;;;;;;;8.21;42.99;101428.06;5112210;28;20187;-66
2024/01/31 09:02:05;;;;;;;12.00;10.10;;;;;;;8.54;42.60;101424.28;5111248;28;20240;-66
2024/01/31 09:04:31;;;;;;;12.90;10.33;;;;;;;8.85;40.93;101429.34;5112071;28;20190;-67
2024/01/31 09:06:58;;;;;;;11.50;9.90;;;;;;;9.28;40.07;101423.63;5111933;28;20198;-66
2024/01/31 09:09:25;;;;;;;15.40;10.67;;;;;;;9.48;40.03;101417.34;5113592;28;20235;-66
2024/01/31 09:11:52;;;;;;;14.20;9.30;;;;;;;9.67;39.64;101414.63;5114511;28;20247;-65
2024/01/31 09:14:18;;;;;;;11.00;9.80;;;;;;;9.50;38.63;101410.06;5114627;28;20217;-65
2024/01/31 09:16:47;;;;;;;15.70;11.40;;;;;;;9.64;38.80;101417.59;5114427;28;20275;-66
2024/01/31 09:19:13;;;;;;;13.43;9.43;;;;;;;9.80;38.54;101407.22;5114093;28;20242;-66
2024/01/31 09:21:40;;;;;;;13.90;9.37;;;;;;;9.95;38.06;101400.44;5114077;28;20752;-66
2024/01/31 09:24:09;;;;;;;9.97;9.00;;;;;;;10.27;37.74;101401.75;5114114;28;20567;-65
2024/01/31 09:26:35;;;;;;;18.80;10.97;;;;;;;9.99;37.37;101385.88;5113430;28;20268;-66
2024/01/31 09:29:03;;;;;;;9.87;8.93;;;;;;;9.83;36.98;101390.97;5111678;28;20198;-66
2024/01/31 09:31:30;;;;;;;10.73;7.83;;;;;;;9.63;37.08;101376.09;5111291;28;20201;-67
2024/01/31 09:33:58;;;;;;;18.30;10.10;;;;;;;9.31;37.59;101371.13;5111732;28;20255;-67
2024/01/31 09:36:26;;;;;;;11.07;10.00;;;;;;;9.14;38.65;101365.72;5112491;28;20241;-65
2024/01/31 09:38:52;;;;;;;15.73;9.73;;;;;;;9.23;38.46;101354.28;5112557;28;20194;-65
2024/01/31 09:41:20;;;;;;;9.60;8.60;;;;;;;9.34;37.55;101351.44;5111707;28;20701;-66
2024/01/31 09:43:48;;;;;;;27.90;12.67;;;;;;;9.44;38.92;101347.78;5113478;28;20191;-66
2024/01/31 09:46:15;;;;;;;11.70;9.80;;;;;;;9.70;38.27;101348.00;5112855;28;20186;-66
2024/01/31 09:48:42;;;;;;;10.00;9.00;;;;;;;9.44;38.23;101347.78;5113546;28;20293;-67
2024/01/31 09:51:10;;;;;;;24.77;9.73;;;;;;;9.70;37.43;101335.59;5113725;28;20190;-66
2024/01/31 09:53:38;;;;;;;21.10;9.67;;;;;;;10.01;36.89;101325.53;5113832;28;20256;-66
2024/01/31 09:56:06;;;;;;;9.57;8.57;;;;;;;10.09;36.35;101320.34;5113926;28;20276;-69
2024/01/31 09:58:33;;;;;;;21.07;10.40;;;;;;;10.06;36.55;101308.19;5113507;28;20631;-66
2024/01/31 10:01:01;;;;;;;13.57;9.40;;;;;;;9.97;36.83;101281.69;5112990;28;20209;-66
2024/01/31 10:03:27;;;;;;;18.10;9.27;;;;;;;10.50;35.71;101314.50;5097803;28;20214;-65
2024/01/31 10:05:55;;;;;;;10.63;8.57;;;;;;;10.87;35.43;101304.53;5109759;28;20278;-65
2024/01/31 10:08:23;;;;;;;14.47;9.87;;;;;;;11.11;34.10;101307.34;5111468;28;20461;-64
2024/01/31 10:10:51;;;;;;;10.10;8.93;;;;;;;11.37;33.68;101289.59;5112771;28;20264;-64
2024/01/31 10:13:17;;;;;;;12.63;9.67;;;;;;;11.45;33.70;101284.31;5109087;28;20196;-64
2024/01/31 10:15:44;;;;;;;10.73;9.03;;;;;;;11.60;33.42;101293.38;5107106;28;20257;-63
2024/01/31 10:18:11;;;;;;;12.80;8.83;;;;;;;11.83;32.74;101283.84;5112424;28;20212;-64
2024/01/31 10:20:38;;;;;;;9.23;8.13;;;;;;;12.04;32.13;101280.78;5112815;28;20544;-64
2024/01/31 10:23:05;;;;;;;18.27;8.93;;;;;;;12.12;31.78;101284.28;5112807;28;20193;-63
2024/01/31 10:25:33;;;;;;;43.83;10.57;;;;;;;12.08;31.63;101272.28;5112192;28;20199;-63
2024/01/31 10:28:00;;;;;;;10.37;8.67;;;;;;;11.78;31.50;101261.38;5111475;28;20200;-64
2024/01/31 10:30:27;;;;;;;10.33;9.27;;;;;;;11.20;32.27;101263.88;5111137;28;20690;-64
2024/01/31 10:32:54;;;;;;;11.30;9.17;;;;;;;10.85;32.61;101255.97;5111425;28;20555;-65
2024/01/31 10:35:22;;;;;;;13.13;9.30;;;;;;;10.98;32.71;101258.25;5111539;28;20192;-65
2024/01/31 10:37:50;;;;;;;13.63;8.67;;;;;;;11.11;32.60;101254.16;5111388;28;20716;-65
2024/01/31 10:40:19;;;;;;;12.03;7.83;;;;;;;11.05;32.38;101254.78;5111976;28;20256;-64
2024/01/31 10:42:47;;;;;;;10.13;8.10;;;;;;;10.76;32.72;101248.94;5109948;28;20231;-64
2024/01/31 10:45:14;;;;;;;15.77;8.60;;;;;;;10.20;33.49;101236.00;5111467;28;20251;-64
2024/01/31 10:47:42;;;;;;;22.17;8.67;;;;;;;10.47;33.32;101245.69;5110596;28;20265;-65
2024/01/31 10:50:10;;;;;;;14.50;9.40;;;;;;;10.78;33.32;101246.94;5125123;27;20256;-63
2024/01/31 10:52:38;;;;;;;9.27;8.00;;;;;;;10.97;33.85;101238.78;5110559;27;20226;-64
2024/01/31 10:55:08;;;;;;;12.67;9.17;;;;;;;11.34;33.68;101234.03;5108308;28;20261;-63
2024/01/31 10:57:37;;;;;;;14.27;9.80;;;;;;;11.63;31.84;101239.84;5110941;28;20225;-65
2024/01/31 11:00:09;;;;;;;15.03;9.43;;;;;;;11.55;31.22;101234.44;5108876;28;20202;-63
2024/01/31 11:02:36;;;;;;;40.33;9.40;;;;;;;11.63;31.07;101233.69;5110490;28;20188;-62
2024/01/31 11:05:04;;;;;;;11.27;8.80;;;;;;;10.96;31.74;101229.97;5111188;28;20190;-63
2024/01/31 11:07:31;;;;;;;10.40;9.47;;;;;;;10.98;31.66;101217.34;5111859;28;20560;-62
2024/01/31 11:09:58;;;;;;;11.97;8.03;;;;;;;11.20;31.04;101218.66;5111725;28;20255;-64
2024/01/31 11:12:28;;;;;;;11.23;8.43;;;;;;;11.35;30.76;101219.72;5110234;28;20190;-64
2024/01/31 11:14:56;;;;;;;12.00;8.17;;;;;;;11.43;30.63;101210.97;5109434;28;20201;-62